createdAt,value
2023-08-03T00:00:10.533Z,17.95
2023-08-03T00:03:13.156Z,17.92
2023-08-03T00:06:15.688Z,17.99
2023-08-03T00:09:17.764Z,17.90
2023-08-03T00:12:20.113Z,17.87
2023-08-03T00:15:22.179Z,17.80
2023-08-03T00:18:24.289Z,17.79
2023-08-03T00:21:26.479Z,17.85
2023-08-03T00:24:28.637Z,17.89
2023-08-03T00:27:31.360Z,17.92
2023-08-03T00:30:33.717Z,17.88
2023-08-03T00:33:35.826Z,17.99
2023-08-03T00:36:37.874Z,17.84
2023-08-03T00:39:41.250Z,17.78
2023-08-03T00:42:43.393Z,17.85
2023-08-03T00:45:45.562Z,17.69
2023-08-03T00:48:47.834Z,17.77
2023-08-03T00:51:49.936Z,17.74
2023-08-03T00:54:52.126Z,17.71
2023-08-03T00:57:54.166Z,17.70
2023-08-03T01:00:56.356Z,17.74
2023-08-03T01:03:58.552Z,17.50
2023-08-03T01:07:00.588Z,17.40
2023-08-03T01:10:03.701Z,17.50
2023-08-03T01:13:06.017Z,17.42
2023-08-03T01:16:12.598Z,17.41
2023-08-03T01:19:15.412Z,17.43
2023-08-03T01:22:19.028Z,17.52
2023-08-03T01:25:21.256Z,17.46
2023-08-03T01:28:23.362Z,17.50
2023-08-03T01:31:25.665Z,17.42
2023-08-03T01:34:29.258Z,17.30
2023-08-03T01:37:31.407Z,17.35
2023-08-03T01:40:33.539Z,17.36
2023-08-03T01:43:35.594Z,17.26
2023-08-03T01:46:37.633Z,17.27
2023-08-03T01:49:39.758Z,17.33
2023-08-03T01:52:41.773Z,17.10
2023-08-03T01:55:46.780Z,17.21
2023-08-03T01:58:48.832Z,17.16
2023-08-03T02:01:51.099Z,17.20
2023-08-03T02:04:53.109Z,17.12
2023-08-03T02:07:55.826Z,17.05
2023-08-03T02:10:57.889Z,16.98
2023-08-03T02:14:00.426Z,16.96
2023-08-03T02:17:02.815Z,17.01
2023-08-03T02:20:05.859Z,17.03
2023-08-03T02:23:07.915Z,17.01
2023-08-03T02:26:10.042Z,17.03
2023-08-03T02:29:12.234Z,17.05
2023-08-03T02:32:14.286Z,17.08
2023-08-03T02:35:16.489Z,17.06
2023-08-03T02:38:18.691Z,17.03
2023-08-03T02:41:20.716Z,16.99
2023-08-03T02:44:22.849Z,17.06
2023-08-03T02:47:24.848Z,16.99
2023-08-03T02:50:27.194Z,16.94
2023-08-03T02:53:29.187Z,16.91
2023-08-03T02:56:31.237Z,16.83
2023-08-03T02:59:33.185Z,16.73
2023-08-03T03:02:35.334Z,16.69
2023-08-03T03:05:37.381Z,16.59
2023-08-03T03:08:39.270Z,16.51
2023-08-03T03:11:41.262Z,16.37
2023-08-03T03:14:43.278Z,16.43
2023-08-03T03:17:45.322Z,16.41
2023-08-03T03:20:47.286Z,16.33
2023-08-03T03:23:49.326Z,16.26
2023-08-03T03:26:51.647Z,16.28
2023-08-03T03:29:53.623Z,16.21
2023-08-03T03:32:55.598Z,16.17
2023-08-03T03:35:57.608Z,16.10
2023-08-03T03:38:59.578Z,16.13
2023-08-03T03:42:01.543Z,15.99
2023-08-03T03:45:03.601Z,15.99
2023-08-03T03:48:05.732Z,15.97
2023-08-03T03:51:07.671Z,15.93
2023-08-03T03:54:09.607Z,15.93
2023-08-03T03:57:11.725Z,15.97
2023-08-03T04:00:13.682Z,16.09
2023-08-03T04:03:15.656Z,16.13
2023-08-03T04:06:17.736Z,16.38
2023-08-03T04:09:19.697Z,16.54
2023-08-03T04:12:21.611Z,16.78
2023-08-03T04:15:23.804Z,17.22
2023-08-03T04:18:25.751Z,17.55
2023-08-03T04:21:27.668Z,17.72
2023-08-03T04:24:31.819Z,18.01
2023-08-03T04:27:33.817Z,18.23
2023-08-03T04:30:35.811Z,18.70
2023-08-03T04:33:37.683Z,19.46
2023-08-03T04:36:40.478Z,20.07
2023-08-03T04:39:42.385Z,20.54
2023-08-03T04:42:44.365Z,20.54
2023-08-03T04:45:46.304Z,20.65
2023-08-03T04:48:48.276Z,20.73
2023-08-03T04:51:53.023Z,21.18
2023-08-03T04:54:54.933Z,21.40
2023-08-03T04:57:56.951Z,21.95
2023-08-03T05:00:59.005Z,21.88
2023-08-03T05:04:01.923Z,22.04
2023-08-03T05:07:04.423Z,22.21
2023-08-03T05:10:07.176Z,22.80
2023-08-03T05:13:09.193Z,23.19
2023-08-03T05:16:11.146Z,23.44
2023-08-03T05:19:13.173Z,23.75
2023-08-03T05:22:15.108Z,23.83
2023-08-03T05:25:17.094Z,24.33
2023-08-03T05:28:19.056Z,23.52
2023-08-03T05:31:21.073Z,23.22
2023-08-03T05:34:23.154Z,22.33
2023-08-03T05:37:25.141Z,21.68
2023-08-03T05:40:27.075Z,21.75
2023-08-03T05:43:29.228Z,22.20
2023-08-03T05:46:33.552Z,22.87
2023-08-03T05:49:40.726Z,22.60
2023-08-03T05:52:43.686Z,22.63
2023-08-03T05:56:01.075Z,22.65
2023-08-03T05:59:13.532Z,22.57
2023-08-03T06:02:33.047Z,23.38
2023-08-03T06:05:51.089Z,24.64
2023-08-03T06:08:55.028Z,24.67
2023-08-03T06:11:57.054Z,24.86
2023-08-03T06:14:59.009Z,24.91
2023-08-03T06:18:04.512Z,25.62
2023-08-03T06:21:06.668Z,25.52
2023-08-03T06:24:09.164Z,25.15
2023-08-03T06:27:12.854Z,25.93
2023-08-03T06:30:15.538Z,26.56
2023-08-03T06:33:20.066Z,26.26
2023-08-03T06:36:29.099Z,27.26
2023-08-03T06:39:34.312Z,27.70
2023-08-03T06:42:37.257Z,26.82
2023-08-03T06:45:43.887Z,26.20
2023-08-03T06:48:46.344Z,26.77
2023-08-03T06:51:48.421Z,26.46
2023-08-03T06:54:50.830Z,27.09
2023-08-03T06:57:54.162Z,26.34
2023-08-03T07:00:56.293Z,27.20
2023-08-03T07:03:58.360Z,27.13
2023-08-03T07:07:03.248Z,26.35
2023-08-03T07:10:07.145Z,27.17
2023-08-03T07:13:11.368Z,25.90
2023-08-03T07:16:25.021Z,26.48
2023-08-03T07:53:44.622Z,24.58
2023-08-03T08:06:23.373Z,25.81
2023-08-03T08:20:19.993Z,27.41
2023-08-03T08:45:50.829Z,27.90
2023-08-03T09:02:14.266Z,29.26
2023-08-03T09:29:58.904Z,26.58
2023-08-03T09:33:01.469Z,27.53
2023-08-03T09:45:37.757Z,28.45
2023-08-03T09:49:14.275Z,27.59
2023-08-03T09:52:15.420Z,26.87
2023-08-03T09:55:45.345Z,26.68
2023-08-03T09:59:05.092Z,26.95
2023-08-03T10:02:13.115Z,27.91
2023-08-03T10:05:21.469Z,26.34
2023-08-03T10:08:31.648Z,26.30
2023-08-03T10:11:54.979Z,27.72
2023-08-03T10:14:58.727Z,27.06
2023-08-03T10:18:06.143Z,27.09
2023-08-03T10:21:13.659Z,25.94
2023-08-03T10:24:23.559Z,26.24
2023-08-03T10:27:26.226Z,26.32
2023-08-03T10:31:04.974Z,26.29
2023-08-03T10:34:07.472Z,26.39
2023-08-03T10:37:16.045Z,26.39
2023-08-03T10:40:24.634Z,25.63
2023-08-03T10:43:26.670Z,26.51
2023-08-03T10:46:35.199Z,27.34
2023-08-03T10:49:46.402Z,26.70
2023-08-03T10:52:51.516Z,26.58
2023-08-03T10:56:16.339Z,26.30
2023-08-03T10:59:18.401Z,27.17
2023-08-03T11:02:23.632Z,26.89
2023-08-03T11:05:25.904Z,27.20
2023-08-03T11:08:27.971Z,27.51
2023-08-03T11:11:34.076Z,29.23
2023-08-03T11:14:38.189Z,29.63
2023-08-03T11:17:40.285Z,28.81
2023-08-03T11:20:42.918Z,29.07
2023-08-03T11:23:47.970Z,28.80
2023-08-03T11:26:51.412Z,27.84
2023-08-03T11:29:53.641Z,27.27
2023-08-03T11:33:02.360Z,28.92
2023-08-03T11:36:04.986Z,28.80
2023-08-03T11:39:07.132Z,28.96
2023-08-03T11:42:09.555Z,30.23
2023-08-03T11:45:14.012Z,29.29
2023-08-03T11:48:15.919Z,29.96
2023-08-03T11:51:20.360Z,29.44
2023-08-03T11:54:25.700Z,28.66
2023-08-03T11:57:53.021Z,28.72
2023-08-03T12:01:03.316Z,28.62
2023-08-03T12:04:14.456Z,29.34
2023-08-03T12:10:21.670Z,29.33
2023-08-03T12:13:24.271Z,29.50
2023-08-03T12:16:39.109Z,30.39
2023-08-03T12:19:47.022Z,30.59
2023-08-03T12:22:49.578Z,29.74
2023-08-03T12:26:22.595Z,29.74
2023-08-03T12:29:41.227Z,28.64
2023-08-03T12:32:47.047Z,29.27
2023-08-03T12:35:59.638Z,28.39
2023-08-03T12:39:07.169Z,27.91
2023-08-03T12:42:13.838Z,27.69
2023-08-03T12:45:19.237Z,28.61
2023-08-03T12:48:28.065Z,28.54
2023-08-03T12:51:33.233Z,28.51
2023-08-03T12:54:35.536Z,28.11
2023-08-03T12:57:41.625Z,28.12
2023-08-03T13:00:48.622Z,27.54
2023-08-03T13:03:53.435Z,27.55
2023-08-03T13:06:58.318Z,27.53
2023-08-03T13:10:02.863Z,27.64
2023-08-03T13:13:28.287Z,27.13
2023-08-03T13:16:36.385Z,27.07
2023-08-03T13:19:42.037Z,27.28
2023-08-03T13:22:47.190Z,27.10
2023-08-03T13:25:49.373Z,27.23
2023-08-03T13:28:54.069Z,26.92
2023-08-03T13:31:56.286Z,27.06
2023-08-03T13:35:01.419Z,26.78
2023-08-03T13:38:03.786Z,26.70
2023-08-03T13:41:06.551Z,26.71
2023-08-03T13:44:09.626Z,26.79
2023-08-03T13:47:15.167Z,26.52
2023-08-03T13:50:17.707Z,26.45
2023-08-03T13:53:24.692Z,26.53
2023-08-03T13:56:32.904Z,26.72
2023-08-03T13:59:35.472Z,26.72
2023-08-03T14:02:44.794Z,26.75
2023-08-03T14:09:12.931Z,26.69
2023-08-03T14:12:16.716Z,26.57
2023-08-03T14:21:52.984Z,26.36
2023-08-03T14:31:16.714Z,25.89
2023-08-03T14:34:22.032Z,25.97
2023-08-03T14:37:26.249Z,26.01
2023-08-03T14:40:32.026Z,25.94
2023-08-03T14:43:34.256Z,25.65
2023-08-03T14:46:37.180Z,25.87
2023-08-03T14:49:43.376Z,25.88
2023-08-03T14:53:09.631Z,26.07
2023-08-03T14:59:19.882Z,25.81
2023-08-03T15:02:24.971Z,25.77
2023-08-03T15:05:30.394Z,25.82
2023-08-03T15:08:35.711Z,25.93
2023-08-03T15:11:39.390Z,25.83
2023-08-03T15:14:48.503Z,25.83
2023-08-03T15:17:58.676Z,25.50
2023-08-03T15:21:01.612Z,25.48
2023-08-03T15:24:29.696Z,25.83
2023-08-03T15:35:26.891Z,25.03
2023-08-03T15:38:33.634Z,24.89
2023-08-03T15:41:41.261Z,24.74
2023-08-03T15:44:45.462Z,24.68
2023-08-03T15:51:09.906Z,24.63
2023-08-03T15:54:20.798Z,24.71
2023-08-03T15:57:30.142Z,24.41
2023-08-03T16:00:36.991Z,24.35
2023-08-03T16:03:43.049Z,24.30
2023-08-03T16:06:49.492Z,24.44
2023-08-03T16:09:51.809Z,24.35
2023-08-03T16:12:57.379Z,24.25
2023-08-03T16:16:03.928Z,24.07
2023-08-03T16:19:09.493Z,24.21
2023-08-03T16:22:11.785Z,23.97
2023-08-03T16:25:19.061Z,24.18
2023-08-03T16:28:22.351Z,23.90
2023-08-03T16:31:38.258Z,23.83
2023-08-03T16:37:53.316Z,23.97
2023-08-03T16:41:04.275Z,23.76
2023-08-03T16:44:08.628Z,23.57
2023-08-03T16:47:10.904Z,23.60
2023-08-03T16:50:15.760Z,23.60
2023-08-03T16:53:25.331Z,23.43
2023-08-03T16:56:27.510Z,23.62
2023-08-03T16:59:31.942Z,23.49
2023-08-03T17:02:39.935Z,23.45
2023-08-03T17:05:44.251Z,23.37
2023-08-03T17:08:49.084Z,23.17
2023-08-03T17:11:55.744Z,23.00
2023-08-03T17:14:57.994Z,22.94
2023-08-03T17:18:03.270Z,22.82
2023-08-03T17:21:08.856Z,22.75
2023-08-03T17:24:11.044Z,22.66
2023-08-03T17:27:13.135Z,22.55
2023-08-03T17:30:15.313Z,22.55
2023-08-03T17:33:22.363Z,22.20
2023-08-03T17:36:25.409Z,22.04
2023-08-03T17:39:27.704Z,21.93
2023-08-03T17:42:33.672Z,21.82
2023-08-03T17:45:39.594Z,21.67
2023-08-03T17:48:42.008Z,21.68
2023-08-03T17:51:44.913Z,21.72
2023-08-03T17:54:47.330Z,21.49
2023-08-03T17:57:52.301Z,21.43
2023-08-03T18:00:54.471Z,21.34
2023-08-03T18:03:56.638Z,21.38
2023-08-03T18:06:59.634Z,21.27
2023-08-03T18:10:05.740Z,21.05
2023-08-03T18:13:08.056Z,21.04
2023-08-03T18:16:14.956Z,20.84
2023-08-03T18:19:18.221Z,20.91
2023-08-03T18:22:20.498Z,20.89
2023-08-03T18:25:22.454Z,20.68
2023-08-03T18:28:24.893Z,20.91
2023-08-03T18:31:26.943Z,20.91
2023-08-03T18:34:29.672Z,21.00
2023-08-03T18:37:31.692Z,21.17
2023-08-03T18:40:33.962Z,21.04
2023-08-03T18:43:37.030Z,21.01
2023-08-03T18:46:39.442Z,21.12
2023-08-03T18:49:44.297Z,21.15
2023-08-03T18:52:46.712Z,21.11
2023-08-03T18:55:48.907Z,21.04
2023-08-03T18:58:55.634Z,21.05
2023-08-03T19:01:57.769Z,20.84
2023-08-03T19:04:59.932Z,21.02
2023-08-03T19:08:06.914Z,21.07
2023-08-03T19:11:11.741Z,21.11
2023-08-03T19:14:13.719Z,21.11
2023-08-03T19:17:15.929Z,21.05
2023-08-03T19:20:17.921Z,21.05
2023-08-03T19:23:19.867Z,20.97
2023-08-03T19:26:22.216Z,20.85
2023-08-03T19:29:24.302Z,20.76
2023-08-03T19:32:26.434Z,20.73
2023-08-03T19:35:29.464Z,20.70
2023-08-03T19:38:32.652Z,20.61
2023-08-03T19:41:34.518Z,20.68
2023-08-03T19:44:37.562Z,20.64
2023-08-03T19:47:39.482Z,20.52
2023-08-03T19:53:46.384Z,20.46
2023-08-03T19:56:49.003Z,20.50
2023-08-03T20:09:10.995Z,19.98
2023-08-03T20:12:13.179Z,19.92
2023-08-03T20:15:15.227Z,19.79
2023-08-03T20:21:22.060Z,19.59
2023-08-03T20:24:24.224Z,19.45
2023-08-03T20:27:28.381Z,19.42
2023-08-03T20:30:31.435Z,19.40
2023-08-03T20:33:33.472Z,19.48
2023-08-03T20:36:36.238Z,19.40
2023-08-03T20:39:38.985Z,19.32
2023-08-03T20:42:42.586Z,19.23
2023-08-03T20:48:52.545Z,19.38
2023-08-03T20:51:54.845Z,19.29
2023-08-03T20:54:57.905Z,19.24
2023-08-03T20:58:00.809Z,19.13
2023-08-03T21:01:02.902Z,19.12
2023-08-03T21:04:05.475Z,19.17
2023-08-03T21:07:07.728Z,19.15
2023-08-03T21:13:16.287Z,19.13
2023-08-03T21:16:18.430Z,19.23
2023-08-03T21:19:23.380Z,19.37
2023-08-03T21:22:25.310Z,19.18
2023-08-03T21:25:27.252Z,19.29
2023-08-03T21:28:29.235Z,19.20
2023-08-03T21:31:31.218Z,19.24
2023-08-03T21:34:34.178Z,19.42
2023-08-03T21:37:37.789Z,19.58
2023-08-03T21:40:39.815Z,19.50
2023-08-03T21:43:41.721Z,19.48
2023-08-03T21:46:43.644Z,19.41
2023-08-03T21:49:45.630Z,19.33
2023-08-03T21:52:47.498Z,19.24
2023-08-03T21:55:49.473Z,19.27
2023-08-03T21:58:52.027Z,19.29
2023-08-03T22:01:55.613Z,19.28
2023-08-03T22:04:57.598Z,19.31
2023-08-03T22:07:59.533Z,19.29
2023-08-03T22:11:01.493Z,19.34
2023-08-03T22:14:03.396Z,19.31
2023-08-03T22:17:05.539Z,19.30
2023-08-03T22:20:07.886Z,19.22
2023-08-03T22:23:09.757Z,19.13
2023-08-03T22:26:17.121Z,19.04
2023-08-03T22:29:19.065Z,19.04
2023-08-03T22:32:20.995Z,18.95
2023-08-03T22:35:22.905Z,18.82
2023-08-03T22:38:24.754Z,18.80
2023-08-03T22:41:26.688Z,18.74
2023-08-03T22:44:28.609Z,18.87
2023-08-03T22:47:36.066Z,18.71
2023-08-03T22:50:47.046Z,18.76
2023-08-03T22:53:49.295Z,18.60
2023-08-03T22:56:51.226Z,18.72
2023-08-03T22:59:54.222Z,18.73
2023-08-03T23:02:56.413Z,18.63
2023-08-03T23:05:58.367Z,18.62
2023-08-03T23:09:00.276Z,18.69
2023-08-03T23:12:02.129Z,18.63
2023-08-03T23:15:04.381Z,18.53
2023-08-03T23:18:06.533Z,18.53
2023-08-03T23:21:08.509Z,18.64
2023-08-03T23:24:10.332Z,18.76
2023-08-03T23:27:12.141Z,18.65
2023-08-03T23:30:14.010Z,18.44
2023-08-03T23:33:15.916Z,18.50
2023-08-03T23:36:17.924Z,18.40
2023-08-03T23:39:20.002Z,18.62
2023-08-03T23:42:21.841Z,18.62
2023-08-03T23:45:23.678Z,18.66
2023-08-03T23:48:25.479Z,18.63
2023-08-03T23:51:27.368Z,18.38
2023-08-03T23:54:29.189Z,18.53
2023-08-03T23:57:31.038Z,18.53
